sensor_id;sensor_type;location;lat;lon;timestamp;P1;durP1;ratioP1;P2;durP2;ratioP2
38557;SDS011;24333;42.626;23.308;2023-06-10T00:00:03;5.55;;;3.00;;
38557;SDS011;24333;42.626;23.308;2023-06-10T00:02:32;4.68;;;3.20;;
38557;SDS011;24333;42.626;23.308;2023-06-10T00:04:58;7.22;;;3.97;;
38557;SDS011;24333;42.626;23.308;2023-06-10T00:07:24;10.85;;;3.35;;
38557;SDS011;24333;42.626;23.308;2023-06-10T01:15:44;24.45;;;8.95;;
38557;SDS011;24333;42.626;23.308;2023-06-10T01:18:10;16.98;;;7.25;;
38557;SDS011;24333;42.626;23.308;2023-06-10T01:20:40;15.27;;;6.90;;
38557;SDS011;24333;42.626;23.308;2023-06-10T01:23:07;11.20;;;6.30;;
38557;SDS011;24333;42.626;23.308;2023-06-10T01:25:34;12.65;;;6.20;;
38557;SDS011;24333;42.626;23.308;2023-06-10T01:30:39;12.75;;;6.28;;
38557;SDS011;24333;42.626;23.308;2023-06-10T01:33:07;15.63;;;7.15;;
38557;SDS011;24333;42.626;23.308;2023-06-10T01:35:36;16.60;;;6.97;;
38557;SDS011;24333;42.626;23.308;2023-06-10T01:38:03;12.55;;;6.65;;
38557;SDS011;24333;42.626;23.308;2023-06-10T01:40:30;13.48;;;7.13;;
38557;SDS011;24333;42.626;23.308;2023-06-10T01:42:56;15.45;;;7.18;;
38557;SDS011;24333;42.626;23.308;2023-06-10T01:45:22;14.45;;;6.90;;
38557;SDS011;24333;42.626;23.308;2023-06-10T01:47:47;14.20;;;6.28;;
38557;SDS011;24333;42.626;23.308;2023-06-10T01:50:13;9.70;;;5.70;;
38557;SDS011;24333;42.626;23.308;2023-06-10T01:52:38;12.88;;;6.43;;
38557;SDS011;24333;42.626;23.308;2023-06-10T01:55:04;12.45;;;6.05;;
38557;SDS011;24333;42.626;23.308;2023-06-10T01:57:30;14.35;;;6.00;;
38557;SDS011;24333;42.626;23.308;2023-06-10T01:59:55;11.95;;;6.00;;
38557;SDS011;24333;42.626;23.308;2023-06-10T02:04:55;16.35;;;6.00;;
38557;SDS011;24333;42.626;23.308;2023-06-10T02:07:22;13.27;;;6.30;;
38557;SDS011;24333;42.626;23.308;2023-06-10T02:09:47;11.75;;;6.03;;
38557;SDS011;24333;42.626;23.308;2023-06-10T02:12:12;10.18;;;5.72;;
38557;SDS011;24333;42.626;23.308;2023-06-10T02:14:38;14.75;;;6.32;;
38557;SDS011;24333;42.626;23.308;2023-06-10T02:17:03;13.52;;;6.13;;
38557;SDS011;24333;42.626;23.308;2023-06-10T02:19:29;11.55;;;5.43;;
38557;SDS011;24333;42.626;23.308;2023-06-10T02:21:55;9.40;;;5.25;;
38557;SDS011;24333;42.626;23.308;2023-06-10T02:24:21;14.60;;;5.85;;
38557;SDS011;24333;42.626;23.308;2023-06-10T02:26:46;14.02;;;6.10;;
38557;SDS011;24333;42.626;23.308;2023-06-10T02:29:12;12.55;;;5.53;;
38557;SDS011;24333;42.626;23.308;2023-06-10T02:31:38;12.25;;;5.30;;
38557;SDS011;24333;42.626;23.308;2023-06-10T03:12:52;7.03;;;3.50;;
38557;SDS011;24333;42.626;23.308;2023-06-10T03:15:18;7.55;;;3.88;;
38557;SDS011;24333;42.626;23.308;2023-06-10T03:17:47;9.63;;;3.70;;
38557;SDS011;24333;42.626;23.308;2023-06-10T03:20:23;7.47;;;3.75;;
38557;SDS011;24333;42.626;23.308;2023-06-10T03:22:48;5.78;;;3.35;;
38557;SDS011;24333;42.626;23.308;2023-06-10T03:25:13;6.05;;;3.25;;
38557;SDS011;24333;42.626;23.308;2023-06-10T03:27:40;6.97;;;3.53;;
38557;SDS011;24333;42.626;23.308;2023-06-10T03:30:07;6.63;;;3.85;;
38557;SDS011;24333;42.626;23.308;2023-06-10T03:32:34;5.65;;;3.42;;
38557;SDS011;24333;42.626;23.308;2023-06-10T03:35:00;7.65;;;3.97;;
38557;SDS011;24333;42.626;23.308;2023-06-10T03:37:26;6.13;;;3.33;;
38557;SDS011;24333;42.626;23.308;2023-06-10T03:39:51;7.63;;;3.85;;
38557;SDS011;24333;42.626;23.308;2023-06-10T03:42:17;6.05;;;3.22;;
38557;SDS011;24333;42.626;23.308;2023-06-10T03:44:42;7.70;;;4.28;;
38557;SDS011;24333;42.626;23.308;2023-06-10T03:47:07;7.45;;;4.25;;
38557;SDS011;24333;42.626;23.308;2023-06-10T03:49:33;7.53;;;4.25;;
38557;SDS011;24333;42.626;23.308;2023-06-10T03:51:58;9.18;;;4.43;;
38557;SDS011;24333;42.626;23.308;2023-06-10T03:54:24;7.35;;;3.95;;
38557;SDS011;24333;42.626;23.308;2023-06-10T03:56:50;7.38;;;4.13;;
38557;SDS011;24333;42.626;23.308;2023-06-10T03:59:15;9.13;;;4.50;;
38557;SDS011;24333;42.626;23.308;2023-06-10T04:01:41;7.70;;;4.25;;
38557;SDS011;24333;42.626;23.308;2023-06-10T04:04:06;11.02;;;4.82;;
38557;SDS011;24333;42.626;23.308;2023-06-10T04:06:32;10.07;;;4.95;;
38557;SDS011;24333;42.626;23.308;2023-06-10T04:08:57;11.25;;;4.82;;
38557;SDS011;24333;42.626;23.308;2023-06-10T04:11:23;9.02;;;4.40;;
38557;SDS011;24333;42.626;23.308;2023-06-10T04:13:49;9.25;;;4.00;;
38557;SDS011;24333;42.626;23.308;2023-06-10T04:16:15;6.70;;;4.30;;
38557;SDS011;24333;42.626;23.308;2023-06-10T04:18:41;9.75;;;4.45;;
38557;SDS011;24333;42.626;23.308;2023-06-10T04:21:06;6.50;;;3.95;;
38557;SDS011;24333;42.626;23.308;2023-06-10T04:23:32;7.28;;;3.85;;
38557;SDS011;24333;42.626;23.308;2023-06-10T04:25:57;6.75;;;4.07;;
38557;SDS011;24333;42.626;23.308;2023-06-10T04:28:24;8.90;;;4.13;;
38557;SDS011;24333;42.626;23.308;2023-06-10T04:30:50;12.05;;;4.93;;
38557;SDS011;24333;42.626;23.308;2023-06-10T04:33:15;6.25;;;3.85;;
38557;SDS011;24333;42.626;23.308;2023-06-10T04:35:41;8.23;;;4.32;;
38557;SDS011;24333;42.626;23.308;2023-06-10T04:38:07;8.00;;;4.40;;
38557;SDS011;24333;42.626;23.308;2023-06-10T04:40:32;7.75;;;4.60;;
38557;SDS011;24333;42.626;23.308;2023-06-10T04:42:58;11.25;;;4.50;;
38557;SDS011;24333;42.626;23.308;2023-06-10T04:45:23;9.00;;;5.03;;
38557;SDS011;24333;42.626;23.308;2023-06-10T04:47:49;12.23;;;5.22;;
38557;SDS011;24333;42.626;23.308;2023-06-10T04:50:14;9.25;;;5.47;;
38557;SDS011;24333;42.626;23.308;2023-06-10T04:52:40;12.40;;;6.60;;
38557;SDS011;24333;42.626;23.308;2023-06-10T04:55:09;14.55;;;6.60;;
38557;SDS011;24333;42.626;23.308;2023-06-10T04:57:35;19.40;;;7.28;;
38557;SDS011;24333;42.626;23.308;2023-06-10T05:00:00;20.15;;;9.05;;
38557;SDS011;24333;42.626;23.308;2023-06-10T05:31:13;15.17;;;9.00;;
38557;SDS011;24333;42.626;23.308;2023-06-10T05:33:39;17.25;;;7.82;;
38557;SDS011;24333;42.626;23.308;2023-06-10T05:36:05;14.70;;;7.72;;
38557;SDS011;24333;42.626;23.308;2023-06-10T05:38:30;13.10;;;7.47;;
38557;SDS011;24333;42.626;23.308;2023-06-10T05:40:56;16.75;;;7.35;;
38557;SDS011;24333;42.626;23.308;2023-06-10T05:43:22;13.23;;;7.47;;
38557;SDS011;24333;42.626;23.308;2023-06-10T05:45:47;14.10;;;7.65;;
38557;SDS011;24333;42.626;23.308;2023-06-10T05:48:13;12.27;;;7.22;;
38557;SDS011;24333;42.626;23.308;2023-06-10T05:50:39;14.55;;;7.95;;
38557;SDS011;24333;42.626;23.308;2023-06-10T05:53:07;14.60;;;7.82;;
38557;SDS011;24333;42.626;23.308;2023-06-10T05:55:40;14.35;;;6.97;;
38557;SDS011;24333;42.626;23.308;2023-06-10T05:58:09;13.18;;;7.15;;
38557;SDS011;24333;42.626;23.308;2023-06-10T06:00:37;12.10;;;6.80;;
38557;SDS011;24333;42.626;23.308;2023-06-10T06:03:03;10.07;;;5.90;;
38557;SDS011;24333;42.626;23.308;2023-06-10T06:05:29;14.48;;;5.80;;
38557;SDS011;24333;42.626;23.308;2023-06-10T06:08:00;11.98;;;5.75;;
38557;SDS011;24333;42.626;23.308;2023-06-10T06:10:32;13.20;;;6.25;;
38557;SDS011;24333;42.626;23.308;2023-06-10T06:12:58;11.98;;;7.03;;
38557;SDS011;24333;42.626;23.308;2023-06-10T06:15:25;18.13;;;7.40;;
38557;SDS011;24333;42.626;23.308;2023-06-10T06:17:50;14.77;;;7.15;;
38557;SDS011;24333;42.626;23.308;2023-06-10T06:20:20;13.35;;;7.78;;
38557;SDS011;24333;42.626;23.308;2023-06-10T06:22:47;16.48;;;8.88;;
38557;SDS011;24333;42.626;23.308;2023-06-10T06:25:13;18.40;;;8.65;;
38557;SDS011;24333;42.626;23.308;2023-06-10T06:27:39;15.82;;;9.10;;
38557;SDS011;24333;42.626;23.308;2023-06-10T06:30:05;15.55;;;9.27;;
38557;SDS011;24333;42.626;23.308;2023-06-10T06:32:31;19.30;;;9.07;;
38557;SDS011;24333;42.626;23.308;2023-06-10T07:20:08;15.07;;;7.68;;
38557;SDS011;24333;42.626;23.308;2023-06-10T07:22:34;12.27;;;6.35;;
38557;SDS011;24333;42.626;23.308;2023-06-10T07:31:10;10.88;;;6.47;;
38557;SDS011;24333;42.626;23.308;2023-06-10T07:33:37;11.68;;;6.55;;
38557;SDS011;24333;42.626;23.308;2023-06-10T07:36:04;12.25;;;5.70;;
38557;SDS011;24333;42.626;23.308;2023-06-10T07:38:30;11.32;;;5.40;;
38557;SDS011;24333;42.626;23.308;2023-06-10T07:40:56;15.73;;;6.45;;
38557;SDS011;24333;42.626;23.308;2023-06-10T08:23:24;7.53;;;4.07;;
38557;SDS011;24333;42.626;23.308;2023-06-10T08:25:57;5.80;;;3.50;;
38557;SDS011;24333;42.626;23.308;2023-06-10T08:28:23;4.53;;;2.88;;
38557;SDS011;24333;42.626;23.308;2023-06-10T08:30:48;5.43;;;2.70;;
38557;SDS011;24333;42.626;23.308;2023-06-10T08:33:13;10.57;;;3.97;;
38557;SDS011;24333;42.626;23.308;2023-06-10T08:35:39;5.32;;;3.00;;
38557;SDS011;24333;42.626;23.308;2023-06-10T08:38:05;7.35;;;3.03;;
38557;SDS011;24333;42.626;23.308;2023-06-10T08:40:32;6.13;;;3.17;;
38557;SDS011;24333;42.626;23.308;2023-06-10T08:43:00;4.70;;;2.88;;
38557;SDS011;24333;42.626;23.308;2023-06-10T08:45:30;3.38;;;2.30;;
38557;SDS011;24333;42.626;23.308;2023-06-10T08:47:57;9.02;;;3.15;;
38557;SDS011;24333;42.626;23.308;2023-06-10T08:50:24;10.15;;;3.08;;
38557;SDS011;24333;42.626;23.308;2023-06-10T09:05:47;10.27;;;3.45;;
38557;SDS011;24333;42.626;23.308;2023-06-10T09:08:13;6.45;;;3.00;;
38557;SDS011;24333;42.626;23.308;2023-06-10T09:13:49;5.45;;;3.10;;
38557;SDS011;24333;42.626;23.308;2023-06-10T09:16:27;4.00;;;2.50;;
38557;SDS011;24333;42.626;23.308;2023-06-10T09:18:53;10.95;;;3.00;;
38557;SDS011;24333;42.626;23.308;2023-06-10T09:21:23;3.50;;;2.10;;
38557;SDS011;24333;42.626;23.308;2023-06-10T09:23:50;3.53;;;2.17;;
38557;SDS011;24333;42.626;23.308;2023-06-10T09:26:16;6.53;;;3.13;;
38557;SDS011;24333;42.626;23.308;2023-06-10T10:05:01;4.95;;;2.30;;
38557;SDS011;24333;42.626;23.308;2023-06-10T10:07:29;6.53;;;3.10;;
38557;SDS011;24333;42.626;23.308;2023-06-10T10:09:56;5.50;;;3.15;;
38557;SDS011;24333;42.626;23.308;2023-06-10T10:12:22;7.13;;;3.75;;
38557;SDS011;24333;42.626;23.308;2023-06-10T10:14:50;5.00;;;2.75;;
38557;SDS011;24333;42.626;23.308;2023-06-10T10:17:17;6.85;;;2.78;;
38557;SDS011;24333;42.626;23.308;2023-06-10T10:19:50;3.55;;;2.40;;
38557;SDS011;24333;42.626;23.308;2023-06-10T10:22:20;4.88;;;2.40;;
38557;SDS011;24333;42.626;23.308;2023-06-10T10:27:26;5.65;;;2.83;;
38557;SDS011;24333;42.626;23.308;2023-06-10T10:29:53;7.63;;;2.58;;
38557;SDS011;24333;42.626;23.308;2023-06-10T10:32:26;3.80;;;2.10;;
38557;SDS011;24333;42.626;23.308;2023-06-10T10:35:17;3.60;;;2.38;;
38557;SDS011;24333;42.626;23.308;2023-06-10T10:45:59;3.33;;;2.42;;
38557;SDS011;24333;42.626;23.308;2023-06-10T10:48:25;3.55;;;2.55;;
38557;SDS011;24333;42.626;23.308;2023-06-10T10:50:57;3.90;;;2.40;;
38557;SDS011;24333;42.626;23.308;2023-06-10T10:53:23;4.03;;;2.30;;
38557;SDS011;24333;42.626;23.308;2023-06-10T10:56:00;4.72;;;2.55;;
38557;SDS011;24333;42.626;23.308;2023-06-10T10:58:30;5.07;;;2.33;;
38557;SDS011;24333;42.626;23.308;2023-06-10T11:00:57;3.38;;;2.22;;
38557;SDS011;24333;42.626;23.308;2023-06-10T11:03:22;9.18;;;2.47;;
38557;SDS011;24333;42.626;23.308;2023-06-10T11:05:53;3.05;;;2.15;;
38557;SDS011;24333;42.626;23.308;2023-06-10T11:14:53;4.38;;;3.10;;
38557;SDS011;24333;42.626;23.308;2023-06-10T11:17:33;4.28;;;2.60;;
38557;SDS011;24333;42.626;23.308;2023-06-10T11:23:10;3.95;;;2.35;;
38557;SDS011;24333;42.626;23.308;2023-06-10T11:25:49;5.53;;;2.67;;
38557;SDS011;24333;42.626;23.308;2023-06-10T11:28:18;3.67;;;2.45;;
38557;SDS011;24333;42.626;23.308;2023-06-10T11:30:50;4.43;;;2.78;;
38557;SDS011;24333;42.626;23.308;2023-06-10T11:33:22;4.93;;;2.40;;
38557;SDS011;24333;42.626;23.308;2023-06-10T11:35:50;4.70;;;2.38;;
38557;SDS011;24333;42.626;23.308;2023-06-10T11:48:36;9.40;;;3.03;;
38557;SDS011;24333;42.626;23.308;2023-06-10T13:02:28;6.53;;;3.92;;
38557;SDS011;24333;42.626;23.308;2023-06-10T13:05:02;4.15;;;2.63;;
38557;SDS011;24333;42.626;23.308;2023-06-10T13:07:28;24.40;;;6.07;;
38557;SDS011;24333;42.626;23.308;2023-06-10T13:09:56;35.55;;;8.57;;
38557;SDS011;24333;42.626;23.308;2023-06-10T13:12:38;11.65;;;3.92;;
38557;SDS011;24333;42.626;23.308;2023-06-10T13:15:15;5.75;;;2.47;;
38557;SDS011;24333;42.626;23.308;2023-06-10T13:17:46;5.90;;;2.60;;
38557;SDS011;24333;42.626;23.308;2023-06-10T13:20:15;11.48;;;2.92;;
38557;SDS011;24333;42.626;23.308;2023-06-10T13:22:45;4.43;;;2.83;;
38557;SDS011;24333;42.626;23.308;2023-06-10T13:49:44;3.97;;;2.35;;
38557;SDS011;24333;42.626;23.308;2023-06-10T13:52:11;7.25;;;2.80;;
38557;SDS011;24333;42.626;23.308;2023-06-10T13:54:38;6.13;;;2.67;;
38557;SDS011;24333;42.626;23.308;2023-06-10T14:02:39;5.38;;;2.60;;
38557;SDS011;24333;42.626;23.308;2023-06-10T14:05:04;7.22;;;3.03;;
38557;SDS011;24333;42.626;23.308;2023-06-10T14:07:30;5.47;;;2.90;;
38557;SDS011;24333;42.626;23.308;2023-06-10T14:09:56;5.50;;;2.90;;
38557;SDS011;24333;42.626;23.308;2023-06-10T14:12:21;4.50;;;3.05;;
38557;SDS011;24333;42.626;23.308;2023-06-10T14:14:47;5.07;;;2.65;;
38557;SDS011;24333;42.626;23.308;2023-06-10T14:17:12;7.18;;;3.40;;
38557;SDS011;24333;42.626;23.308;2023-06-10T14:19:38;4.40;;;3.03;;
38557;SDS011;24333;42.626;23.308;2023-06-10T14:22:05;6.65;;;3.08;;
38557;SDS011;24333;42.626;23.308;2023-06-10T14:24:32;4.78;;;3.25;;
38557;SDS011;24333;42.626;23.308;2023-06-10T14:26:57;5.38;;;2.95;;
38557;SDS011;24333;42.626;23.308;2023-06-10T14:29:23;7.85;;;2.85;;
38557;SDS011;24333;42.626;23.308;2023-06-10T14:31:49;7.20;;;3.13;;
38557;SDS011;24333;42.626;23.308;2023-06-10T14:34:14;7.43;;;3.13;;
38557;SDS011;24333;42.626;23.308;2023-06-10T14:36:40;5.65;;;2.55;;
38557;SDS011;24333;42.626;23.308;2023-06-10T14:39:05;8.10;;;3.28;;
38557;SDS011;24333;42.626;23.308;2023-06-10T14:41:31;14.40;;;5.50;;
38557;SDS011;24333;42.626;23.308;2023-06-10T14:43:56;9.25;;;4.47;;
38557;SDS011;24333;42.626;23.308;2023-06-10T14:46:22;8.85;;;4.25;;
38557;SDS011;24333;42.626;23.308;2023-06-10T14:48:47;13.02;;;5.13;;
38557;SDS011;24333;42.626;23.308;2023-06-10T14:51:13;10.25;;;4.85;;
38557;SDS011;24333;42.626;23.308;2023-06-10T14:53:38;11.30;;;4.03;;
38557;SDS011;24333;42.626;23.308;2023-06-10T14:56:03;8.52;;;3.30;;
38557;SDS011;24333;42.626;23.308;2023-06-10T14:58:29;4.35;;;2.67;;
38557;SDS011;24333;42.626;23.308;2023-06-10T15:00:55;9.95;;;3.17;;
38557;SDS011;24333;42.626;23.308;2023-06-10T15:03:20;4.35;;;2.72;;
38557;SDS011;24333;42.626;23.308;2023-06-10T15:05:45;4.15;;;2.63;;
38557;SDS011;24333;42.626;23.308;2023-06-10T15:08:11;5.95;;;2.95;;
38557;SDS011;24333;42.626;23.308;2023-06-10T15:10:36;6.38;;;3.85;;
38557;SDS011;24333;42.626;23.308;2023-06-10T15:13:05;8.60;;;4.47;;
38557;SDS011;24333;42.626;23.308;2023-06-10T15:15:30;6.82;;;3.38;;
38557;SDS011;24333;42.626;23.308;2023-06-10T15:17:56;7.03;;;3.72;;
38557;SDS011;24333;42.626;23.308;2023-06-10T15:20:21;8.45;;;3.28;;
38557;SDS011;24333;42.626;23.308;2023-06-10T15:22:47;5.80;;;3.08;;
38557;SDS011;24333;42.626;23.308;2023-06-10T15:25:12;6.95;;;3.00;;
38557;SDS011;24333;42.626;23.308;2023-06-10T15:27:39;5.82;;;2.95;;
38557;SDS011;24333;42.626;23.308;2023-06-10T15:30:05;4.65;;;2.58;;
38557;SDS011;24333;42.626;23.308;2023-06-10T15:32:31;9.63;;;2.80;;
38557;SDS011;24333;42.626;23.308;2023-06-10T15:34:57;8.32;;;2.95;;
38557;SDS011;24333;42.626;23.308;2023-06-10T15:37:22;5.18;;;2.75;;
38557;SDS011;24333;42.626;23.308;2023-06-10T15:39:48;6.63;;;2.70;;
38557;SDS011;24333;42.626;23.308;2023-06-10T15:42:13;5.88;;;2.50;;
38557;SDS011;24333;42.626;23.308;2023-06-10T15:44:39;4.45;;;2.58;;
38557;SDS011;24333;42.626;23.308;2023-06-10T15:47:04;7.43;;;2.90;;
38557;SDS011;24333;42.626;23.308;2023-06-10T16:05:21;6.07;;;3.42;;
38557;SDS011;24333;42.626;23.308;2023-06-10T16:10:35;7.20;;;3.60;;
38557;SDS011;24333;42.626;23.308;2023-06-10T16:13:01;8.27;;;3.90;;
38557;SDS011;24333;42.626;23.308;2023-06-10T16:15:27;10.70;;;3.90;;
38557;SDS011;24333;42.626;23.308;2023-06-10T16:17:53;4.55;;;2.88;;
38557;SDS011;24333;42.626;23.308;2023-06-10T16:20:20;5.90;;;3.22;;
38557;SDS011;24333;42.626;23.308;2023-06-10T16:22:46;7.40;;;3.47;;
38557;SDS011;24333;42.626;23.308;2023-06-10T16:25:12;9.15;;;3.30;;
38557;SDS011;24333;42.626;23.308;2023-06-10T16:27:38;6.40;;;3.25;;
38557;SDS011;24333;42.626;23.308;2023-06-10T16:30:03;7.82;;;2.95;;
38557;SDS011;24333;42.626;23.308;2023-06-10T16:32:29;8.50;;;3.47;;
38557;SDS011;24333;42.626;23.308;2023-06-10T16:42:53;13.13;;;6.75;;
38557;SDS011;24333;42.626;23.308;2023-06-10T16:45:19;42.15;;;20.90;;
38557;SDS011;24333;42.626;23.308;2023-06-10T16:47:45;10.73;;;6.38;;
38557;SDS011;24333;42.626;23.308;2023-06-10T16:57:13;16.83;;;7.05;;
38557;SDS011;24333;42.626;23.308;2023-06-10T16:59:39;14.85;;;6.45;;
38557;SDS011;24333;42.626;23.308;2023-06-10T17:02:05;10.15;;;5.28;;
38557;SDS011;24333;42.626;23.308;2023-06-10T17:07:22;10.30;;;5.78;;
38557;SDS011;24333;42.626;23.308;2023-06-10T17:09:48;10.20;;;5.07;;
38557;SDS011;24333;42.626;23.308;2023-06-10T17:12:14;11.85;;;5.70;;
38557;SDS011;24333;42.626;23.308;2023-06-10T17:14:39;8.27;;;4.43;;
38557;SDS011;24333;42.626;23.308;2023-06-10T17:17:05;9.40;;;4.75;;
38557;SDS011;24333;42.626;23.308;2023-06-10T17:19:30;11.13;;;4.45;;
38557;SDS011;24333;42.626;23.308;2023-06-10T17:21:56;8.50;;;4.63;;
38557;SDS011;24333;42.626;23.308;2023-06-10T17:24:22;11.45;;;3.90;;
38557;SDS011;24333;42.626;23.308;2023-06-10T17:26:48;7.03;;;3.38;;
38557;SDS011;24333;42.626;23.308;2023-06-10T17:29:13;5.95;;;3.40;;
38557;SDS011;24333;42.626;23.308;2023-06-10T17:31:39;5.10;;;3.13;;
38557;SDS011;24333;42.626;23.308;2023-06-10T17:34:05;8.57;;;3.47;;
38557;SDS011;24333;42.626;23.308;2023-06-10T17:36:30;7.05;;;3.08;;
38557;SDS011;24333;42.626;23.308;2023-06-10T17:38:55;6.28;;;3.40;;
38557;SDS011;24333;42.626;23.308;2023-06-10T17:41:21;5.75;;;3.15;;
38557;SDS011;24333;42.626;23.308;2023-06-10T17:43:46;7.05;;;3.60;;
38557;SDS011;24333;42.626;23.308;2023-06-10T17:46:12;6.05;;;3.50;;
38557;SDS011;24333;42.626;23.308;2023-06-10T17:48:39;6.20;;;3.00;;
38557;SDS011;24333;42.626;23.308;2023-06-10T17:51:07;8.32;;;3.05;;
38557;SDS011;24333;42.626;23.308;2023-06-10T17:53:34;7.32;;;3.20;;
38557;SDS011;24333;42.626;23.308;2023-06-10T17:56:00;6.22;;;3.03;;
38557;SDS011;24333;42.626;23.308;2023-06-10T17:58:25;6.15;;;3.05;;
38557;SDS011;24333;42.626;23.308;2023-06-10T18:00:54;13.23;;;3.42;;
38557;SDS011;24333;42.626;23.308;2023-06-10T18:03:19;8.38;;;3.90;;
38557;SDS011;24333;42.626;23.308;2023-06-10T18:05:52;9.23;;;4.90;;
38557;SDS011;24333;42.626;23.308;2023-06-10T18:08:18;7.50;;;3.83;;
38557;SDS011;24333;42.626;23.308;2023-06-10T18:10:44;11.55;;;3.78;;
38557;SDS011;24333;42.626;23.308;2023-06-10T18:13:09;5.78;;;3.22;;
38557;SDS011;24333;42.626;23.308;2023-06-10T18:15:35;6.05;;;3.60;;
38557;SDS011;24333;42.626;23.308;2023-06-10T18:18:06;8.00;;;3.45;;
38557;SDS011;24333;42.626;23.308;2023-06-10T18:20:32;8.55;;;4.00;;
38557;SDS011;24333;42.626;23.308;2023-06-10T18:22:57;8.00;;;3.53;;
38557;SDS011;24333;42.626;23.308;2023-06-10T18:25:23;5.68;;;2.83;;
38557;SDS011;24333;42.626;23.308;2023-06-10T18:27:48;6.57;;;3.33;;
38557;SDS011;24333;42.626;23.308;2023-06-10T18:30:14;9.40;;;3.83;;
38557;SDS011;24333;42.626;23.308;2023-06-10T18:32:40;7.57;;;3.83;;
38557;SDS011;24333;42.626;23.308;2023-06-10T18:35:05;8.18;;;4.07;;
38557;SDS011;24333;42.626;23.308;2023-06-10T18:37:31;9.13;;;4.47;;
38557;SDS011;24333;42.626;23.308;2023-06-10T18:40:05;12.95;;;5.78;;
38557;SDS011;24333;42.626;23.308;2023-06-10T18:42:31;14.75;;;6.47;;
38557;SDS011;24333;42.626;23.308;2023-06-10T18:44:57;9.88;;;5.38;;
38557;SDS011;24333;42.626;23.308;2023-06-10T18:47:23;8.88;;;5.05;;
38557;SDS011;24333;42.626;23.308;2023-06-10T18:49:48;11.98;;;4.00;;
38557;SDS011;24333;42.626;23.308;2023-06-10T18:52:13;9.18;;;4.13;;
38557;SDS011;24333;42.626;23.308;2023-06-10T18:54:39;13.85;;;4.63;;
38557;SDS011;24333;42.626;23.308;2023-06-10T18:57:05;12.13;;;5.35;;
38557;SDS011;24333;42.626;23.308;2023-06-10T18:59:31;16.33;;;5.60;;
38557;SDS011;24333;42.626;23.308;2023-06-10T19:01:56;9.80;;;4.55;;
38557;SDS011;24333;42.626;23.308;2023-06-10T19:04:22;6.88;;;3.33;;
38557;SDS011;24333;42.626;23.308;2023-06-10T19:06:47;6.07;;;3.30;;
38557;SDS011;24333;42.626;23.308;2023-06-10T19:09:13;8.88;;;3.85;;
38557;SDS011;24333;42.626;23.308;2023-06-10T19:11:38;5.60;;;3.00;;
38557;SDS011;24333;42.626;23.308;2023-06-10T19:14:04;9.35;;;2.75;;
38557;SDS011;24333;42.626;23.308;2023-06-10T19:16:29;6.10;;;3.25;;
38557;SDS011;24333;42.626;23.308;2023-06-10T19:18:55;8.05;;;3.33;;
38557;SDS011;24333;42.626;23.308;2023-06-10T19:21:20;6.15;;;3.17;;
38557;SDS011;24333;42.626;23.308;2023-06-10T19:23:46;5.28;;;3.20;;
38557;SDS011;24333;42.626;23.308;2023-06-10T19:26:11;7.10;;;3.22;;
38557;SDS011;24333;42.626;23.308;2023-06-10T19:28:37;6.57;;;3.42;;
38557;SDS011;24333;42.626;23.308;2023-06-10T19:31:02;6.40;;;3.15;;
38557;SDS011;24333;42.626;23.308;2023-06-10T19:33:28;7.55;;;3.33;;
38557;SDS011;24333;42.626;23.308;2023-06-10T19:35:53;8.40;;;3.83;;
38557;SDS011;24333;42.626;23.308;2023-06-10T19:38:21;9.25;;;4.20;;
38557;SDS011;24333;42.626;23.308;2023-06-10T19:40:47;14.25;;;5.53;;
38557;SDS011;24333;42.626;23.308;2023-06-10T19:43:12;11.23;;;5.97;;
38557;SDS011;24333;42.626;23.308;2023-06-10T19:45:38;16.20;;;5.80;;
38557;SDS011;24333;42.626;23.308;2023-06-10T19:48:03;13.73;;;5.45;;
38557;SDS011;24333;42.626;23.308;2023-06-10T19:50:29;13.15;;;4.20;;
38557;SDS011;24333;42.626;23.308;2023-06-10T19:52:55;5.68;;;3.42;;
38557;SDS011;24333;42.626;23.308;2023-06-10T19:55:20;6.47;;;3.45;;
38557;SDS011;24333;42.626;23.308;2023-06-10T19:57:46;6.03;;;3.40;;
38557;SDS011;24333;42.626;23.308;2023-06-10T20:00:11;5.80;;;3.00;;
38557;SDS011;24333;42.626;23.308;2023-06-10T20:02:37;6.47;;;3.45;;
38557;SDS011;24333;42.626;23.308;2023-06-10T20:05:03;6.95;;;3.10;;
38557;SDS011;24333;42.626;23.308;2023-06-10T20:07:34;6.00;;;3.22;;
38557;SDS011;24333;42.626;23.308;2023-06-10T20:10:00;8.35;;;3.40;;
38557;SDS011;24333;42.626;23.308;2023-06-10T20:12:25;6.18;;;3.25;;
38557;SDS011;24333;42.626;23.308;2023-06-10T20:14:51;10.38;;;3.53;;
38557;SDS011;24333;42.626;23.308;2023-06-10T20:17:16;5.25;;;3.10;;
38557;SDS011;24333;42.626;23.308;2023-06-10T20:19:42;7.43;;;3.53;;
38557;SDS011;24333;42.626;23.308;2023-06-10T20:22:07;6.30;;;3.40;;
38557;SDS011;24333;42.626;23.308;2023-06-10T20:24:34;6.15;;;3.13;;
38557;SDS011;24333;42.626;23.308;2023-06-10T20:27:00;6.32;;;3.50;;
38557;SDS011;24333;42.626;23.308;2023-06-10T20:29:25;7.07;;;3.72;;
38557;SDS011;24333;42.626;23.308;2023-06-10T20:31:52;6.57;;;3.40;;
38557;SDS011;24333;42.626;23.308;2023-06-10T20:34:17;7.30;;;3.75;;
38557;SDS011;24333;42.626;23.308;2023-06-10T20:36:43;9.52;;;3.83;;
38557;SDS011;24333;42.626;23.308;2023-06-10T20:39:09;5.25;;;3.60;;
38557;SDS011;24333;42.626;23.308;2023-06-10T20:41:36;8.38;;;3.78;;
38557;SDS011;24333;42.626;23.308;2023-06-10T20:44:02;11.55;;;3.63;;
38557;SDS011;24333;42.626;23.308;2023-06-10T20:46:30;9.38;;;4.00;;
38557;SDS011;24333;42.626;23.308;2023-06-10T20:48:55;7.10;;;4.15;;
38557;SDS011;24333;42.626;23.308;2023-06-10T20:51:21;9.38;;;3.97;;
38557;SDS011;24333;42.626;23.308;2023-06-10T20:53:47;5.75;;;3.50;;
38557;SDS011;24333;42.626;23.308;2023-06-10T20:56:12;7.78;;;3.53;;
38557;SDS011;24333;42.626;23.308;2023-06-10T20:58:38;5.88;;;3.47;;
38557;SDS011;24333;42.626;23.308;2023-06-10T21:01:03;7.10;;;3.38;;
38557;SDS011;24333;42.626;23.308;2023-06-10T21:03:29;10.43;;;3.70;;
38557;SDS011;24333;42.626;23.308;2023-06-10T21:05:55;6.53;;;3.40;;
38557;SDS011;24333;42.626;23.308;2023-06-10T21:08:20;6.00;;;3.70;;
38557;SDS011;24333;42.626;23.308;2023-06-10T21:10:49;5.03;;;3.13;;
38557;SDS011;24333;42.626;23.308;2023-06-10T21:13:27;6.78;;;3.75;;
38557;SDS011;24333;42.626;23.308;2023-06-10T21:15:52;5.28;;;3.00;;
38557;SDS011;24333;42.626;23.308;2023-06-10T21:18:18;10.52;;;3.70;;
38557;SDS011;24333;42.626;23.308;2023-06-10T21:20:45;7.10;;;3.75;;
38557;SDS011;24333;42.626;23.308;2023-06-10T21:23:11;6.35;;;3.30;;
38557;SDS011;24333;42.626;23.308;2023-06-10T21:25:37;5.47;;;3.38;;
38557;SDS011;24333;42.626;23.308;2023-06-10T21:28:02;7.45;;;3.33;;
38557;SDS011;24333;42.626;23.308;2023-06-10T21:30:28;6.20;;;3.15;;
38557;SDS011;24333;42.626;23.308;2023-06-10T21:32:54;6.65;;;2.88;;
38557;SDS011;24333;42.626;23.308;2023-06-10T21:35:20;6.25;;;3.22;;
38557;SDS011;24333;42.626;23.308;2023-06-10T21:37:46;8.68;;;3.17;;
38557;SDS011;24333;42.626;23.308;2023-06-10T21:40:12;5.00;;;2.53;;
38557;SDS011;24333;42.626;23.308;2023-06-10T21:42:38;4.68;;;2.83;;
38557;SDS011;24333;42.626;23.308;2023-06-10T21:45:03;5.03;;;2.88;;
38557;SDS011;24333;42.626;23.308;2023-06-10T21:47:29;6.18;;;3.25;;
38557;SDS011;24333;42.626;23.308;2023-06-10T21:49:55;4.47;;;2.80;;
38557;SDS011;24333;42.626;23.308;2023-06-10T21:52:20;7.55;;;3.03;;
38557;SDS011;24333;42.626;23.308;2023-06-10T21:54:46;6.22;;;3.28;;
38557;SDS011;24333;42.626;23.308;2023-06-10T21:57:12;6.60;;;3.10;;